Time;durP1;ratioP1;P1;durP2;ratioP2;P2;SDS_P1;SDS_P2;PMS_P1;PMS_P2;Temp;Humidity;BMP_temperature;BMP_pressure;BME280_temperature;BME280_humidity;BME280_pressure;Samples;Min_cycle;Max_cycle;Signal;HPM_P1;HPM_P2
2021/11/07 00:03:32;;;;;;;0.43;0.40;;;;;;;6.05;100.00;101030.84;5003188;28;20463;-50
2021/11/07 00:08:56;;;;;;;0.30;0.20;;;;;;;6.11;100.00;101027.31;4996401;28;20997;-51
2021/11/07 00:13:53;;;;;;;0.30;0.20;;;;;;;6.25;100.00;100999.19;4992886;28;20449;-51
2021/11/07 00:16:29;;;;;;;0.30;0.20;;;;;;;6.61;100.00;100986.84;5002289;28;20508;-51
2021/11/07 00:19:10;;;;;;;0.30;0.20;;;;;;;6.69;100.00;100974.50;4992952;28;20612;-50
2021/11/07 00:24:14;;;;;;;0.30;0.20;;;;;;;6.79;100.00;100965.69;5000095;28;20450;-51
2021/11/07 00:29:16;;;;;;;0.30;0.20;;;;;;;6.90;100.00;100971.81;4993963;28;20493;-50
2021/11/07 00:32:02;;;;;;;0.30;0.20;;;;;;;6.81;100.00;100948.06;4988476;28;20493;-50
2021/11/07 00:40:09;;;;;;;1.33;1.27;;;;;;;7.05;100.00;100952.38;4993310;28;21036;-50
2021/11/07 00:48:11;;;;;;;0.30;0.20;;;;;;;6.80;100.00;100943.66;4980425;28;20454;-50
2021/11/07 00:50:50;;;;;;;0.30;0.20;;;;;;;6.83;100.00;100933.94;4982336;28;20871;-50
2021/11/07 00:55:51;;;;;;;0.30;0.20;;;;;;;6.70;100.00;100934.88;4991181;28;20453;-51
2021/11/07 00:58:30;;;;;;;0.30;0.20;;;;;;;6.60;100.00;100934.91;4980016;28;20824;-51
2021/11/07 01:01:08;;;;;;;0.30;0.20;;;;;;;6.46;100.00;100916.44;4994039;28;20473;-50
2021/11/07 01:03:35;;;;;;;0.30;0.20;;;;;;;6.50;100.00;100905.00;4994692;28;20496;-50
2021/11/07 01:06:01;;;;;;;0.30;0.20;;;;;;;6.61;100.00;100910.25;4997393;28;21232;-50
2021/11/07 01:08:28;;;;;;;0.30;0.20;;;;;;;6.47;100.00;100910.28;4996156;28;20488;-50
2021/11/07 01:10:57;;;;;;;3.40;3.10;;;;;;;6.35;100.00;100907.66;4983150;28;20481;-50
2021/11/07 01:13:26;;;;;;;0.30;0.20;;;;;;;6.17;100.00;100903.28;4997584;28;21073;-50
2021/11/07 01:15:53;;;;;;;0.40;0.30;;;;;;;6.14;100.00;100896.22;4998576;28;20453;-50
2021/11/07 01:18:20;;;;;;;0.30;0.20;;;;;;;6.06;100.00;100907.69;5002780;28;20481;-50
2021/11/07 01:20:48;;;;;;;3.60;1.57;;;;;;;6.16;100.00;100905.03;5000794;28;20477;-50
2021/11/07 01:23:42;;;;;;;0.30;0.20;;;;;;;6.18;100.00;100903.28;4995565;28;20903;-50
2021/11/07 01:26:14;;;;;;;0.30;0.30;;;;;;;6.23;100.00;100909.44;4990790;28;21009;-50
2021/11/07 01:28:48;;;;;;;0.30;0.17;;;;;;;6.18;100.00;100911.22;4991693;28;20530;-50
2021/11/07 01:31:15;;;;;;;0.30;0.20;;;;;;;6.09;100.00;100908.56;4980659;28;20556;-50
2021/11/07 01:33:43;;;;;;;0.30;0.30;;;;;;;6.11;100.00;100900.63;4987033;28;20457;-50
2021/11/07 01:44:20;;;;;;;0.30;0.20;;;;;;;5.87;100.00;100914.66;4989983;28;20448;-49
2021/11/07 01:46:51;;;;;;;0.30;0.20;;;;;;;5.88;100.00;100916.44;4995004;28;20496;-50
2021/11/07 01:49:22;;;;;;;0.30;0.17;;;;;;;6.01;100.00;100917.34;4994693;28;20470;-50
2021/11/07 01:51:59;;;;;;;0.30;0.20;;;;;;;6.02;100.00;100911.19;5006985;28;20480;-50
2021/11/07 01:54:29;;;;;;;0.53;0.50;;;;;;;5.93;100.00;100923.50;4982347;28;20446;-51
2021/11/07 01:56:56;;;;;;;0.30;0.20;;;;;;;5.93;100.00;100920.00;4995306;28;20446;-50
2021/11/07 01:59:23;;;;;;;0.30;0.20;;;;;;;5.98;100.00;100930.53;4992216;28;20484;-50
2021/11/07 02:01:57;;;;;;;0.30;0.20;;;;;;;6.02;100.00;100917.34;4989723;28;20450;-50
2021/11/07 02:04:24;;;;;;;0.30;0.20;;;;;;;6.04;100.00;100909.44;4989269;28;20885;-50
2021/11/07 02:06:51;;;;;;;0.43;0.40;;;;;;;6.09;100.00;100910.31;4997871;28;20464;-50
2021/11/07 02:09:17;;;;;;;0.30;0.20;;;;;;;6.21;100.00;100903.28;4993040;28;20477;-50
2021/11/07 02:11:44;;;;;;;1.67;1.67;;;;;;;6.17;100.00;100892.72;4996389;28;20559;-50
2021/11/07 02:14:11;;;;;;;0.30;0.20;;;;;;;6.20;100.00;100880.41;4994066;28;20513;-50
2021/11/07 02:16:39;;;;;;;0.30;0.20;;;;;;;6.18;100.00;100882.16;4991276;28;20898;-51
2021/11/07 02:19:06;;;;;;;0.30;0.20;;;;;;;6.37;100.00;100880.38;4992517;28;20469;-50
2021/11/07 02:21:32;;;;;;;0.30;0.20;;;;;;;6.45;100.00;100881.25;4991700;28;20452;-51
2021/11/07 02:24:00;;;;;;;0.30;0.20;;;;;;;6.51;100.00;100898.81;4988302;28;20454;-50
2021/11/07 02:26:27;;;;;;;0.30;0.30;;;;;;;6.52;100.00;100913.78;4998418;28;20491;-50
2021/11/07 02:28:54;;;;;;;0.30;0.20;;;;;;;6.62;100.00;100920.81;4995361;28;20485;-50
2021/11/07 02:31:21;;;;;;;0.30;0.20;;;;;;;6.49;100.00;100911.16;4986489;28;20499;-50
2021/11/07 02:33:47;;;;;;;0.40;0.40;;;;;;;6.59;100.00;100885.63;4994035;28;21049;-51
2021/11/07 02:36:18;;;;;;;0.30;0.20;;;;;;;6.77;100.00;100874.97;4993976;28;20454;-51
2021/11/07 02:38:47;;;;;;;0.30;0.30;;;;;;;6.70;100.00;100874.09;4989031;28;20469;-51
2021/11/07 02:41:16;;;;;;;4.60;2.20;;;;;;;6.72;100.00;100863.56;4988201;28;20561;-51
2021/11/07 02:43:44;;;;;;;0.60;0.57;;;;;;;6.71;100.00;100851.22;4986236;28;20800;-50
2021/11/07 02:46:16;;;;;;;0.30;0.20;;;;;;;6.75;100.00;100845.06;4997343;28;20487;-51
2021/11/07 02:48:50;;;;;;;0.40;0.40;;;;;;;6.78;100.00;100834.47;4992929;28;20974;-51
2021/11/07 02:51:23;;;;;;;0.30;0.27;;;;;;;6.85;100.00;100820.31;4993900;28;20522;-51
2021/11/07 02:53:50;;;;;;;0.30;0.20;;;;;;;6.81;100.00;100815.94;4990919;28;20486;-51
2021/11/07 02:56:17;;;;;;;0.30;0.20;;;;;;;6.90;100.00;100818.56;4986156;28;20511;-50
2021/11/07 02:58:44;;;;;;;0.30;0.20;;;;;;;6.93;100.00;100815.00;4988599;28;20616;-51
2021/11/07 03:01:10;;;;;;;0.30;0.20;;;;;;;6.87;100.00;100804.50;4989757;28;20457;-50
2021/11/07 03:03:37;;;;;;;0.30;0.20;;;;;;;6.97;100.00;100806.16;4991585;28;20946;-50
2021/11/07 03:06:04;;;;;;;0.30;0.20;;;;;;;6.98;100.00;100802.63;4994364;28;20457;-50
2021/11/07 03:08:31;;;;;;;0.30;0.20;;;;;;;7.07;100.00;100802.59;4995211;28;20916;-50
2021/11/07 03:10:59;;;;;;;3.23;1.07;;;;;;;7.05;100.00;100799.97;4993350;28;20449;-50
2021/11/07 03:13:25;;;;;;;0.30;0.20;;;;;;;7.05;100.00;100815.81;4985585;28;20547;-51
2021/11/07 03:15:52;;;;;;;0.30;0.20;;;;;;;7.03;100.00;100814.09;4992912;28;20567;-50
2021/11/07 03:18:19;;;;;;;0.30;0.20;;;;;;;7.11;100.00;100804.31;4986707;28;20985;-51
2021/11/07 03:20:46;;;;;;;0.30;0.20;;;;;;;6.98;100.00;100797.34;4994257;28;20461;-49
2021/11/07 03:23:19;;;;;;;0.43;0.43;;;;;;;7.18;100.00;100790.19;4994927;28;20448;-50
2021/11/07 03:25:50;;;;;;;0.67;0.67;;;;;;;7.33;100.00;100790.09;4991792;28;20450;-50
2021/11/07 03:28:17;;;;;;;0.40;0.30;;;;;;;7.31;100.00;100773.34;4998996;28;20492;-50
2021/11/07 03:35:38;;;;;;;0.50;0.50;;;;;;;7.20;100.00;100780.47;5038434;28;20557;-77
2021/11/07 03:38:04;;;;;;;0.67;0.67;;;;;;;7.18;100.00;100754.94;5039041;28;20874;-77
2021/11/07 03:40:33;;;;;;;0.30;0.20;;;;;;;7.22;100.00;100760.19;5009013;28;20944;-77
2021/11/07 03:43:00;;;;;;;0.30;0.20;;;;;;;7.28;100.00;100762.81;5038290;28;21019;-77
2021/11/07 03:45:27;;;;;;;0.40;0.40;;;;;;;7.25;100.00;100754.88;5010273;28;20471;-77
2021/11/07 03:47:59;;;;;;;0.30;0.20;;;;;;;7.24;100.00;100752.25;5046225;28;20513;-77
2021/11/07 03:50:27;;;;;;;0.30;0.20;;;;;;;7.12;100.00;100761.13;5015777;28;20448;-77
2021/11/07 03:52:55;;;;;;;0.30;0.20;;;;;;;7.13;100.00;100762.94;5040066;28;20996;-77
2021/11/07 03:55:22;;;;;;;0.30;0.20;;;;;;;7.12;100.00;100758.50;5037995;28;20475;-77
2021/11/07 03:57:49;;;;;;;0.30;0.20;;;;;;;7.23;100.00;100767.22;5033759;28;20451;-77
2021/11/07 04:00:18;;;;;;;0.30;0.20;;;;;;;7.24;100.00;100768.09;5026011;28;20487;-77
2021/11/07 04:02:45;;;;;;;0.30;0.20;;;;;;;7.31;100.00;100767.19;5035024;28;20479;-77
2021/11/07 04:05:13;;;;;;;0.30;0.20;;;;;;;7.38;100.00;100758.31;5033400;28;20533;-77
2021/11/07 04:07:40;;;;;;;0.30;0.20;;;;;;;7.30;100.00;100746.94;5014451;28;20455;-77
2021/11/07 04:10:10;;;;;;;0.53;0.53;;;;;;;7.34;100.00;100735.44;5019087;28;20505;-77
2021/11/07 04:12:37;;;;;;;0.30;0.20;;;;;;;7.33;100.00;100734.56;5031607;28;20483;-77
2021/11/07 04:15:05;;;;;;;0.30;0.20;;;;;;;7.49;100.00;100721.19;5027125;28;20478;-77
2021/11/07 04:17:32;;;;;;;0.30;0.20;;;;;;;7.56;100.00;100728.19;5044671;28;20459;-77
2021/11/07 04:19:59;;;;;;;0.30;0.20;;;;;;;7.37;100.00;100727.47;5046493;28;20462;-77
2021/11/07 04:22:25;;;;;;;0.30;0.20;;;;;;;7.38;100.00;100721.28;5042857;28;20448;-77
2021/11/07 04:24:52;;;;;;;0.30;0.20;;;;;;;7.49;100.00;100706.19;5049749;28;20537;-77
2021/11/07 04:27:19;;;;;;;0.30;0.20;;;;;;;7.46;100.00;100706.25;5028824;28;20485;-77
2021/11/07 04:29:46;;;;;;;0.30;0.20;;;;;;;7.50;100.00;100701.78;5033710;28;20528;-78
2021/11/07 04:32:13;;;;;;;0.30;0.20;;;;;;;7.51;100.00;100677.97;5023682;28;20466;-77
2021/11/07 04:34:39;;;;;;;0.30;0.20;;;;;;;7.49;100.00;100670.94;5028599;28;20470;-77
2021/11/07 04:37:06;;;;;;;0.40;0.40;;;;;;;7.56;100.00;100677.94;5037100;28;20505;-77
2021/11/07 04:39:33;;;;;;;0.30;0.20;;;;;;;7.73;100.00;100678.63;5045301;28;20466;-77
2021/11/07 04:42:00;;;;;;;0.30;0.30;;;;;;;7.56;100.00;100662.94;5040807;28;20459;-77
2021/11/07 04:44:27;;;;;;;0.30;0.20;;;;;;;7.60;100.00;100662.00;5021388;28;20515;-77
2021/11/07 04:46:56;;;;;;;0.30;0.20;;;;;;;7.51;100.00;100658.56;5011528;28;21294;-77
2021/11/07 04:49:22;;;;;;;0.30;0.20;;;;;;;7.57;100.00;100659.41;5013439;28;20509;-77
2021/11/07 04:51:49;;;;;;;1.13;1.13;;;;;;;7.48;100.00;100664.78;5033081;28;20502;-77
2021/11/07 04:54:16;;;;;;;0.30;0.20;;;;;;;7.48;100.00;100661.25;5021702;28;20490;-77
2021/11/07 04:56:42;;;;;;;0.30;0.10;;;;;;;7.60;100.00;100645.25;5024521;28;20567;-77
2021/11/07 04:59:09;;;;;;;0.30;0.20;;;;;;;7.52;100.00;100647.09;5043939;28;20500;-77
2021/11/07 05:01:37;;;;;;;0.30;0.20;;;;;;;7.51;100.00;100663.88;5028756;28;20483;-77
2021/11/07 05:04:04;;;;;;;0.30;0.20;;;;;;;7.51;100.00;100648.00;5040849;28;20951;-77
2021/11/07 05:06:31;;;;;;;0.30;0.20;;;;;;;7.67;100.00;100633.69;5036114;28;20545;-77
2021/11/07 05:08:58;;;;;;;0.30;0.20;;;;;;;7.64;100.00;100633.75;5037693;28;20451;-77
2021/11/07 05:11:24;;;;;;;0.30;0.20;;;;;;;7.68;100.00;100628.44;5027711;28;20484;-77
2021/11/07 05:13:52;;;;;;;0.30;0.20;;;;;;;7.61;100.00;100625.84;5036831;28;20488;-77
2021/11/07 05:16:19;;;;;;;0.30;0.20;;;;;;;7.68;100.00;100632.84;5029956;28;20483;-77
2021/11/07 05:18:46;;;;;;;0.30;0.20;;;;;;;7.65;100.00;100630.19;5042347;28;20802;-77
2021/11/07 05:21:12;;;;;;;0.90;0.87;;;;;;;7.76;100.00;100620.38;5026469;28;20456;-77
2021/11/07 05:23:39;;;;;;;0.30;0.20;;;;;;;7.61;100.00;100609.97;5037598;28;20451;-77
2021/11/07 05:26:06;;;;;;;0.30;0.20;;;;;;;7.50;100.00;100609.22;5035924;28;20467;-77
2021/11/07 05:28:34;;;;;;;0.30;0.20;;;;;;;7.52;100.00;100610.94;5028713;28;20479;-77
2021/11/07 05:31:02;;;;;;;0.30;0.20;;;;;;;7.50;100.00;100602.16;5023061;28;20490;-76
2021/11/07 05:33:31;;;;;;;0.30;0.20;;;;;;;7.56;100.00;100617.09;5035071;28;20488;-77
2021/11/07 05:35:57;;;;;;;0.30;0.20;;;;;;;7.45;100.00;100617.22;5035177;28;20475;-77
2021/11/07 05:38:24;;;;;;;0.77;0.77;;;;;;;7.51;100.00;100601.25;5018259;28;20464;-77
2021/11/07 05:40:51;;;;;;;1.33;1.33;;;;;;;7.45;100.00;100611.91;5023784;28;20515;-77
2021/11/07 05:43:20;;;;;;;0.30;0.20;;;;;;;7.35;100.00;100599.69;5041688;28;20459;-77
2021/11/07 05:45:48;;;;;;;0.30;0.20;;;;;;;7.36;100.00;100602.31;5015796;28;20503;-77
2021/11/07 05:48:15;;;;;;;0.30;0.20;;;;;;;7.28;100.00;100595.38;5015392;28;20448;-77
2021/11/07 05:50:43;;;;;;;0.30;0.20;;;;;;;7.19;100.00;100587.50;5032348;28;20450;-76
2021/11/07 05:53:09;;;;;;;0.30;0.20;;;;;;;7.19;100.00;100574.28;5013599;28;20561;-77
2021/11/07 05:55:36;;;;;;;0.40;0.40;;;;;;;7.20;100.00;100576.91;5034671;28;20510;-77
2021/11/07 05:58:03;;;;;;;0.30;0.27;;;;;;;7.24;100.00;100586.56;5035982;28;20459;-77
2021/11/07 06:00:30;;;;;;;6.93;1.20;;;;;;;7.11;100.00;100563.78;5034507;28;20451;-77
2021/11/07 06:03:00;;;;;;;0.30;0.20;;;;;;;7.03;100.00;100555.06;5030617;28;20499;-77
2021/11/07 06:05:27;;;;;;;0.30;0.20;;;;;;;7.06;100.00;100557.69;5039108;28;20474;-77
2021/11/07 06:07:53;;;;;;;0.30;0.20;;;;;;;7.08;100.00;100558.53;5015693;28;20460;-76
2021/11/07 06:10:20;;;;;;;0.30;0.20;;;;;;;7.02;100.00;100561.25;5032981;28;20512;-76
2021/11/07 06:12:46;;;;;;;0.30;0.20;;;;;;;7.15;100.00;100559.38;5016493;28;20456;-76
2021/11/07 06:15:13;;;;;;;0.30;0.20;;;;;;;7.15;100.00;100548.78;5018540;28;20480;-77
2021/11/07 06:17:40;;;;;;;10.40;1.13;;;;;;;7.12;100.00;100542.63;5040907;28;20463;-77
2021/11/07 06:20:07;;;;;;;0.30;0.20;;;;;;;7.03;100.00;100544.50;5042841;28;20867;-76
2021/11/07 06:22:34;;;;;;;0.30;0.20;;;;;;;6.97;100.00;100547.19;5040852;28;21002;-76
2021/11/07 06:25:03;;;;;;;0.30;0.20;;;;;;;6.92;100.00;100530.53;5044863;28;20467;-76
2021/11/07 06:27:30;;;;;;;0.30;0.20;;;;;;;7.08;100.00;100545.31;5045210;28;20461;-76
2021/11/07 06:29:58;;;;;;;0.30;0.23;;;;;;;7.05;100.00;100555.94;5026362;28;20483;-76
2021/11/07 06:32:25;;;;;;;0.30;0.20;;;;;;;7.04;100.00;100556.81;5033290;28;20456;-76
2021/11/07 06:34:51;;;;;;;0.43;0.43;;;;;;;7.09;100.00;100560.28;5023297;28;20849;-77
2021/11/07 06:37:18;;;;;;;0.30;0.20;;;;;;;7.24;100.00;100564.53;5011561;28;20518;-76
2021/11/07 06:39:46;;;;;;;0.30;0.20;;;;;;;7.16;100.00;100567.28;5041239;28;20831;-76
2021/11/07 06:42:13;;;;;;;1.33;0.87;;;;;;;7.19;100.00;100574.28;5036319;28;20455;-77
2021/11/07 06:44:40;;;;;;;0.30;0.20;;;;;;;7.27;100.00;100568.03;5023580;28;21000;-77
2021/11/07 06:47:08;;;;;;;0.30;0.20;;;;;;;7.40;100.00;100555.53;5037397;28;20953;-77
2021/11/07 06:49:36;;;;;;;0.73;0.73;;;;;;;7.30;100.00;100557.44;5021218;28;20514;-77
2021/11/07 06:52:03;;;;;;;0.30;0.23;;;;;;;7.31;100.00;100564.47;5038069;28;20519;-77
2021/11/07 06:54:30;;;;;;;2.53;2.40;;;;;;;7.26;100.00;100571.56;5030249;28;20492;-77
2021/11/07 06:56:58;;;;;;;0.30;0.20;;;;;;;7.39;100.00;100578.47;5011692;28;20587;-77
2021/11/07 06:59:24;;;;;;;0.30;0.20;;;;;;;7.32;100.00;100587.38;5022801;28;20523;-77
2021/11/07 07:01:51;;;;;;;0.30;0.17;;;;;;;7.31;100.00;100580.34;5032979;28;20459;-77
2021/11/07 07:04:18;;;;;;;0.30;0.30;;;;;;;7.48;100.00;100571.34;5020408;28;20502;-77
2021/11/07 07:06:45;;;;;;;0.30;0.20;;;;;;;7.55;100.00;100546.59;5029199;28;20514;-77
2021/11/07 07:09:15;;;;;;;0.30;0.20;;;;;;;7.66;100.00;100565.81;5044734;28;20451;-77
2021/11/07 07:11:47;;;;;;;0.30;0.20;;;;;;;7.80;100.00;100563.00;5053940;28;20447;-77
2021/11/07 07:14:20;;;;;;;0.30;0.20;;;;;;;7.93;100.00;100560.16;5043406;28;20491;-77
2021/11/07 07:30:26;;;;;;;0.30;0.30;;;;;;;8.01;100.00;100578.59;5039728;28;20508;-77
2021/11/07 07:33:28;;;;;;;0.30;0.20;;;;;;;8.04;100.00;100583.84;5039149;28;20886;-77
2021/11/07 07:35:36;;;;;;;12.70;2.40;;;;;;;7.92;100.00;100573.44;5045312;28;20471;-77
2021/11/07 07:38:02;;;;;;;0.30;0.20;;;;;;;7.89;100.00;100557.59;5047541;28;20811;-77
2021/11/07 07:40:29;;;;;;;6.80;2.23;;;;;;;7.93;100.00;100565.47;5029132;28;20454;-77
2021/11/07 07:42:55;;;;;;;0.30;0.20;;;;;;;7.90;100.00;100567.28;5022238;28;20474;-77
2021/11/07 07:45:23;;;;;;;0.30;0.20;;;;;;;7.93;100.00;100572.53;5026395;28;20505;-77
2021/11/07 07:47:49;;;;;;;0.40;0.40;;;;;;;8.04;100.00;100562.69;5026945;28;20443;-77
2021/11/07 07:50:19;;;;;;;0.30;0.20;;;;;;;8.11;100.00;100574.06;5039559;28;20447;-78
2021/11/07 07:52:45;;;;;;;0.30;0.20;;;;;;;7.97;100.00;100559.25;5022827;28;20943;-77
2021/11/07 07:55:13;;;;;;;0.30;0.20;;;;;;;8.37;100.00;100565.78;5039426;28;20495;-77
2021/11/07 07:57:40;;;;;;;0.30;0.20;;;;;;;8.10;100.00;100562.59;5045302;28;20451;-78
2021/11/07 08:00:10;;;;;;;0.30;0.20;;;;;;;8.15;100.00;100557.22;5046228;28;20863;-78
2021/11/07 08:02:37;;;;;;;0.30;0.20;;;;;;;8.16;100.00;100566.94;5041014;28;20451;-77
2021/11/07 08:05:05;;;;;;;0.50;0.50;;;;;;;8.44;100.00;100563.00;5039622;28;20497;-78
2021/11/07 08:07:32;;;;;;;0.30;0.20;;;;;;;8.48;100.00;100563.81;5024471;28;20446;-77
2021/11/07 08:09:59;;;;;;;0.30;0.20;;;;;;;8.42;100.00;100569.22;5039578;28;21035;-77
2021/11/07 08:12:26;;;;;;;0.67;0.67;;;;;;;8.41;100.00;100565.72;5052632;28;20458;-77
2021/11/07 08:14:53;;;;;;;0.30;0.20;;;;;;;8.32;100.00;100566.66;5038841;28;20531;-77
2021/11/07 08:17:20;;;;;;;0.30;0.20;;;;;;;8.54;100.00;100580.50;5043227;28;20459;-77
2021/11/07 08:19:47;;;;;;;0.47;0.47;;;;;;;8.32;100.00;100569.31;5046195;28;20450;-77
2021/11/07 08:22:14;;;;;;;0.30;0.20;;;;;;;8.33;100.00;100575.50;5024249;28;20453;-77
2021/11/07 08:24:41;;;;;;;0.33;0.30;;;;;;;8.39;100.00;100583.41;5018917;28;20464;-78
2021/11/07 08:27:08;;;;;;;0.30;0.20;;;;;;;8.52;100.00;100577.03;5042515;28;20458;-77
2021/11/07 08:29:35;;;;;;;0.30;0.20;;;;;;;8.57;100.00;100572.50;5038756;28;20516;-77
2021/11/07 08:32:04;;;;;;;0.30;0.20;;;;;;;8.50;100.00;100565.56;5042898;28;20501;-77
2021/11/07 08:34:32;;;;;;;0.30;0.20;;;;;;;8.49;100.00;100562.91;5028061;28;20569;-77
2021/11/07 08:39:33;;;;;;;0.30;0.20;;;;;;;8.47;100.00;100564.72;5045661;28;20893;-77
2021/11/07 08:42:06;;;;;;;0.30;0.20;;;;;;;8.64;100.00;100567.13;5028099;28;20455;-78
2021/11/07 09:01:36;;;;;;;0.30;0.20;;;;;;;8.51;100.00;100561.16;5045678;28;20435;-78
2021/11/07 09:04:22;;;;;;;0.30;0.20;;;;;;;8.48;100.00;100566.47;5031900;28;20439;-78
2021/11/07 09:09:28;;;;;;;0.30;0.20;;;;;;;8.62;100.00;100559.19;5046651;28;20522;-78
2021/11/07 09:11:58;;;;;;;0.30;0.20;;;;;;;8.50;100.00;100548.81;5043221;28;20521;-78
2021/11/07 09:14:34;;;;;;;0.30;0.20;;;;;;;8.69;100.00;100541.41;5027100;28;20491;-78
2021/11/07 09:17:03;;;;;;;0.30;0.20;;;;;;;8.71;100.00;100547.56;5052615;28;20508;-77
2021/11/07 09:19:31;;;;;;;0.90;0.90;;;;;;;8.76;100.00;100549.22;5045687;28;20463;-78
2021/11/07 09:24:37;;;;;;;0.30;0.20;;;;;;;8.50;100.00;100528.50;5049567;28;20847;-78
2021/11/07 09:27:12;;;;;;;0.30;0.20;;;;;;;8.83;100.00;100545.59;5028629;28;20852;-78
2021/11/07 09:30:26;;;;;;;0.30;0.20;;;;;;;8.81;100.00;100539.44;5023361;28;20474;-78
2021/11/07 09:38:05;;;;;;;0.30;0.20;;;;;;;9.05;100.00;100542.56;5051911;28;20441;-78
2021/11/07 09:40:33;;;;;;;0.30;0.20;;;;;;;9.10;100.00;100530.06;5036475;28;20451;-78
2021/11/07 09:43:25;;;;;;;0.30;0.20;;;;;;;9.16;100.00;100522.88;5049569;28;20447;-79
2021/11/07 09:48:33;;;;;;;0.30;0.20;;;;;;;9.44;100.00;100539.13;5048580;28;20451;-79
2021/11/07 09:51:00;;;;;;;0.30;0.20;;;;;;;9.35;100.00;100526.06;5025407;28;21017;-79
2021/11/07 09:53:27;;;;;;;0.30;0.20;;;;;;;9.40;100.00;100532.13;5042733;28;20514;-79
2021/11/07 09:55:54;;;;;;;0.30;0.20;;;;;;;9.41;100.00;100535.66;5034302;28;21613;-79
2021/11/07 09:58:21;;;;;;;0.30;0.20;;;;;;;9.24;100.00;100533.34;5019050;28;20816;-79
2021/11/07 10:00:53;;;;;;;0.30;0.20;;;;;;;9.12;100.00;100547.69;5029075;28;20452;-79
2021/11/07 10:03:24;;;;;;;0.30;0.20;;;;;;;9.27;100.00;100549.19;5035894;28;20460;-79
2021/11/07 10:05:52;;;;;;;0.40;0.20;;;;;;;9.24;100.00;100551.03;5018281;28;20467;-79
2021/11/07 10:08:21;;;;;;;0.30;0.20;;;;;;;9.10;100.00;100541.56;5036443;28;20464;-79
2021/11/07 10:11:01;;;;;;;0.30;0.20;;;;;;;9.31;100.00;100540.25;5036461;28;20452;-79
2021/11/07 10:13:29;;;;;;;0.30;0.20;;;;;;;9.34;100.00;100536.69;5030257;28;20456;-79
2021/11/07 10:16:11;;;;;;;0.30;0.20;;;;;;;9.39;100.00;100535.69;5034634;28;20569;-79
2021/11/07 10:19:01;;;;;;;0.93;0.93;;;;;;;9.28;100.00;100527.06;5014372;28;20535;-79
2021/11/07 10:21:37;;;;;;;0.30;0.20;;;;;;;9.29;100.00;100533.25;5035293;28;20493;-79
2021/11/07 10:24:09;;;;;;;0.30;0.20;;;;;;;9.26;100.00;100547.44;5028459;28;20965;-79
2021/11/07 10:26:39;;;;;;;0.87;0.87;;;;;;;9.30;100.00;100546.47;5040152;28;20505;-78
2021/11/07 10:29:09;;;;;;;0.30;0.20;;;;;;;9.24;100.00;100556.34;5038346;28;20451;-79
2021/11/07 10:31:45;;;;;;;0.30;0.20;;;;;;;9.17;100.00;100545.84;5041521;28;20479;-78
2021/11/07 10:40:38;;;;;;;0.30;0.20;;;;;;;9.27;100.00;100538.59;5051222;28;20455;-78
2021/11/07 10:43:38;;;;;;;0.30;0.20;;;;;;;9.17;100.00;100529.91;5011598;28;20470;-77
2021/11/07 10:46:18;;;;;;;0.30;0.20;;;;;;;9.28;100.00;100526.19;5043696;28;20527;-78
2021/11/07 10:52:23;;;;;;;0.30;0.20;;;;;;;9.28;100.00;100529.72;5002923;28;20956;-78
2021/11/07 10:54:50;;;;;;;0.30;0.20;;;;;;;9.24;100.00;100517.44;5015258;28;20514;-78
2021/11/07 10:57:23;;;;;;;0.30;0.20;;;;;;;9.39;100.00;100514.47;5042206;28;20500;-77
2021/11/07 11:00:19;;;;;;;0.30;0.20;;;;;;;9.47;100.00;100501.94;5036383;28;20455;-78
2021/11/07 11:02:55;;;;;;;0.30;0.20;;;;;;;9.52;100.00;100490.34;5012654;28;20455;-78
2021/11/07 11:05:27;;;;;;;0.30;0.20;;;;;;;9.43;100.00;100500.22;5016750;28;20474;-78
2021/11/07 11:08:01;;;;;;;0.30;0.20;;;;;;;9.46;100.00;100494.00;5017265;28;20466;-77
2021/11/07 11:10:37;;;;;;;0.30;0.20;;;;;;;9.40;100.00;100487.03;5031858;28;20990;-78
2021/11/07 11:13:08;;;;;;;0.30;0.20;;;;;;;9.54;100.00;100493.84;5039481;28;20972;-78
2021/11/07 11:15:49;;;;;;;0.30;0.20;;;;;;;9.63;100.00;100486.56;5026209;28;20912;-79
2021/11/07 11:31:39;;;;;;;0.30;0.20;;;;;;;9.95;100.00;100469.91;5035162;28;20485;-79
2021/11/07 11:34:11;;;;;;;0.30;0.20;;;;;;;9.95;100.00;100471.69;5017200;28;20478;-79
2021/11/07 11:36:46;;;;;;;0.30;0.20;;;;;;;9.78;100.00;100469.41;5042958;28;20455;-79
2021/11/07 11:39:39;;;;;;;0.30;0.20;;;;;;;9.78;100.00;100461.44;5034703;28;20534;-79
2021/11/07 11:42:14;;;;;;;0.30;0.20;;;;;;;9.83;100.00;100456.91;5015670;28;20829;-79
2021/11/07 11:44:45;;;;;;;0.30;0.20;;;;;;;10.03;100.00;100448.50;5019997;28;20506;-79
2021/11/07 11:47:37;;;;;;;0.30;0.20;;;;;;;10.09;100.00;100443.03;5031929;28;20459;-79
2021/11/07 11:58:33;;;;;;;0.30;0.20;;;;;;;10.10;100.00;100442.09;5026057;28;20514;-79
2021/11/07 12:06:44;;;;;;;0.30;0.20;;;;;;;10.30;100.00;100415.09;5031275;28;20468;-79
2021/11/07 12:12:09;;;;;;;0.30;0.20;;;;;;;10.20;100.00;100409.09;5037383;28;20480;-79
2021/11/07 12:14:55;;;;;;;0.30;0.20;;;;;;;10.07;100.00;100413.84;5039916;28;20495;-79
2021/11/07 12:17:49;;;;;;;0.30;0.20;;;;;;;9.98;100.00;100413.19;5039221;28;20966;-79
2021/11/07 12:20:25;;;;;;;0.30;0.20;;;;;;;9.91;100.00;100409.81;5014684;28;20493;-79
2021/11/07 12:23:21;;;;;;;0.30;0.20;;;;;;;9.99;100.00;100418.44;5033291;28;20471;-78
2021/11/07 12:25:50;;;;;;;0.47;0.47;;;;;;;9.95;100.00;100410.63;5009176;28;20845;-79
2021/11/07 12:28:21;;;;;;;0.30;0.20;;;;;;;9.98;100.00;100410.53;5039695;28;20490;-79
2021/11/07 12:31:05;;;;;;;0.30;0.20;;;;;;;9.96;100.00;100412.34;5036231;28;20506;-78
2021/11/07 12:33:54;;;;;;;0.30;0.20;;;;;;;10.13;100.00;100418.13;5024207;28;20941;-78
2021/11/07 12:42:23;;;;;;;0.30;0.20;;;;;;;10.45;100.00;100403.19;5036962;28;20840;-78
2021/11/07 12:44:52;;;;;;;0.30;0.20;;;;;;;10.56;100.00;100398.47;5014228;28;20521;-78
2021/11/07 12:47:26;;;;;;;0.30;0.20;;;;;;;10.66;100.00;100399.94;5013075;28;20460;-78
2021/11/07 12:50:05;;;;;;;0.30;0.20;;;;;;;10.71;100.00;100414.00;5030038;28;20451;-78
2021/11/07 12:52:50;;;;;;;0.30;0.20;;;;;;;10.68;100.00;100419.38;5051877;28;20458;-78
2021/11/07 12:55:38;;;;;;;0.30;0.20;;;;;;;10.65;100.00;100420.34;5037013;28;20549;-79
2021/11/07 12:58:06;;;;;;;0.30;0.20;;;;;;;10.48;100.00;100427.03;5049911;28;20453;-78
2021/11/07 13:00:33;;;;;;;0.30;0.20;;;;;;;10.43;100.00;100418.31;5045082;28;20497;-78
2021/11/07 13:03:12;;;;;;;0.30;0.20;;;;;;;10.46;100.00;100426.19;5029451;28;20456;-79
2021/11/07 13:05:42;;;;;;;0.30;0.20;;;;;;;10.81;100.00;100419.94;5028065;28;20517;-78
2021/11/07 13:08:20;;;;;;;0.30;0.20;;;;;;;10.71;100.00;100416.66;5050120;28;20458;-78
2021/11/07 13:34:56;;;;;;;0.30;0.20;;;;;;;11.02;100.00;100395.41;5043173;28;20544;-78
2021/11/07 13:37:26;;;;;;;0.30;0.20;;;;;;;11.16;100.00;100389.69;5041639;28;20490;-77
2021/11/07 13:40:04;;;;;;;0.30;0.20;;;;;;;10.87;100.00;100382.56;5029327;28;20426;-77
2021/11/07 13:42:38;;;;;;;0.30;0.20;;;;;;;10.82;100.00;100381.78;5031089;28;20982;-77
2021/11/07 13:45:17;;;;;;;0.30;0.20;;;;;;;10.66;100.00;100394.63;5027227;28;20470;-77
2021/11/07 13:47:45;;;;;;;0.30;0.20;;;;;;;10.83;100.00;100386.22;5041693;28;20797;-77
2021/11/07 13:50:16;;;;;;;0.30;0.20;;;;;;;11.08;100.00;100391.69;5024332;28;20460;-77
2021/11/07 13:52:43;;;;;;;0.30;0.20;;;;;;;10.79;100.00;100392.50;5041863;28;20447;-77
2021/11/07 13:55:19;;;;;;;0.30;0.20;;;;;;;10.96;100.00;100388.50;5040890;28;20499;-77
2021/11/07 13:57:46;;;;;;;0.30;0.20;;;;;;;10.97;100.00;100368.06;5043597;28;20497;-77
2021/11/07 14:00:19;;;;;;;0.30;0.20;;;;;;;10.88;100.00;100376.31;5041437;28;20452;-77
2021/11/07 14:02:51;;;;;;;0.87;0.87;;;;;;;10.90;100.00;100382.44;5045278;28;20522;-77
2021/11/07 14:05:19;;;;;;;0.30;0.20;;;;;;;10.98;100.00;100391.09;5032549;28;20843;-77
2021/11/07 14:08:06;;;;;;;0.30;0.20;;;;;;;10.64;100.00;100376.06;5044471;28;20452;-77
2021/11/07 14:10:38;;;;;;;0.30;0.20;;;;;;;10.72;100.00;100373.22;5047824;28;20444;-77
2021/11/07 14:13:10;;;;;;;1.07;0.80;;;;;;;10.63;100.00;100384.09;5048797;28;20509;-77
2021/11/07 14:15:44;;;;;;;0.30;0.20;;;;;;;10.58;100.00;100373.59;5045917;28;20499;-77